createdAt,value
2019-04-14T03:08:04.332Z,28.40
2019-04-14T03:10:31.926Z,66.80
2019-04-14T03:13:15.339Z,64.00
2019-04-14T03:15:48.141Z,66.00
2019-04-14T03:22:04.877Z,60.60
2019-04-14T03:24:33.916Z,57.60
2019-04-14T03:27:48.230Z,63.40
2019-04-14T03:36:05.364Z,57.80
2019-04-14T03:38:18.685Z,56.60
2019-04-14T03:40:54.804Z,56.00
2019-04-14T03:51:02.140Z,60.00
2019-04-14T03:56:20.052Z,58.80
2019-04-14T03:58:53.149Z,57.20
2019-04-14T04:01:25.794Z,60.20
2019-04-14T04:03:58.582Z,60.00
2019-04-14T04:06:31.346Z,57.40
2019-04-14T04:09:03.954Z,56.80
2019-04-14T04:11:36.634Z,58.40
2019-04-14T04:14:09.545Z,52.80
2019-04-14T04:16:48.892Z,56.60
2019-04-14T04:19:40.434Z,54.00
2019-04-14T04:22:32.482Z,56.20
2019-04-14T04:25:24.644Z,50.80
2019-04-14T04:28:14.479Z,53.40
2019-04-14T04:31:00.823Z,53.60
2019-04-14T04:34:09.890Z,56.00
2019-04-14T04:36:49.303Z,53.00
2019-04-14T04:39:41.175Z,49.20
2019-04-14T04:42:13.927Z,49.00
2019-04-14T04:44:46.346Z,47.20
2019-04-14T04:47:18.781Z,52.40
2019-04-14T04:49:51.187Z,52.40
2019-04-14T04:52:23.653Z,50.40
2019-04-14T04:54:55.903Z,53.80
2019-04-14T04:57:28.569Z,47.60
2019-04-14T05:00:00.592Z,47.60
2019-04-14T05:02:33.190Z,46.80
2019-04-14T05:05:05.583Z,50.00
2019-04-14T05:07:38.322Z,43.00
2019-04-14T05:10:37.227Z,47.80
2019-04-14T05:13:18.892Z,44.80
2019-04-14T05:15:57.510Z,44.80
2019-04-14T05:18:29.417Z,44.60
2019-04-14T05:21:01.796Z,45.20
2019-04-14T05:23:34.256Z,42.80
2019-04-14T05:26:07.098Z,42.20
2019-04-14T05:28:39.626Z,41.00
2019-04-14T05:31:12.176Z,42.40
2019-04-14T05:33:44.764Z,47.60
2019-04-14T05:36:17.446Z,34.20
2019-04-14T05:39:00.312Z,38.20
2019-04-14T05:41:33.022Z,32.20
2019-04-14T05:44:10.000Z,32.20
2019-04-14T05:46:42.483Z,43.40
2019-04-14T05:49:24.531Z,32.00
2019-04-14T05:51:48.121Z,26.00
2019-04-14T05:54:20.615Z,27.80
2019-04-14T05:56:53.666Z,51.60
2019-04-14T05:59:26.449Z,28.00
2019-04-14T06:01:59.357Z,30.20
2019-04-14T06:04:31.660Z,32.80
2019-04-14T06:07:03.317Z,24.80
2019-04-14T06:09:35.337Z,34.60
2019-04-14T06:12:07.014Z,14.00
2019-04-14T06:14:38.597Z,26.80
2019-04-14T06:17:09.910Z,25.20
2019-04-14T06:19:41.349Z,23.00
2019-04-14T06:22:12.939Z,26.20
2019-04-14T06:24:44.685Z,29.60
2019-04-14T06:27:16.405Z,28.20
2019-04-14T06:29:50.209Z,28.20
2019-04-14T06:32:33.788Z,25.60
2019-04-14T06:35:19.934Z,29.00
2019-04-14T06:38:09.138Z,26.80
2019-04-14T06:40:58.634Z,22.60
2019-04-14T06:43:30.361Z,27.40
2019-04-14T06:46:05.321Z,34.40
2019-04-14T06:48:36.840Z,30.60
2019-04-14T06:51:09.616Z,25.40
2019-04-14T06:53:41.355Z,31.80
2019-04-14T06:56:13.136Z,31.20
2019-04-14T06:58:44.519Z,22.60
2019-04-14T07:01:16.794Z,22.20
2019-04-14T07:03:48.943Z,22.80
2019-04-14T07:06:21.192Z,27.20
2019-04-14T07:08:52.802Z,34.20
2019-04-14T07:11:24.611Z,30.00
2019-04-14T07:13:56.509Z,26.00
2019-04-14T07:16:28.215Z,25.60
2019-04-14T07:18:59.920Z,26.80
2019-04-14T07:21:31.399Z,28.00
2019-04-14T07:24:03.202Z,28.80
2019-04-14T07:26:34.664Z,28.60
2019-04-14T07:29:06.535Z,26.40
2019-04-14T07:32:38.805Z,27.80
2019-04-14T07:35:22.620Z,22.00
2019-04-14T07:38:19.327Z,25.40
2019-04-14T07:41:08.708Z,25.40
2019-04-14T07:44:02.657Z,25.00
2019-04-14T07:47:10.877Z,26.80
2019-04-14T07:50:14.883Z,21.80
2019-04-14T07:53:06.409Z,26.80
2019-04-14T07:55:45.529Z,25.20
2019-04-14T07:58:31.183Z,28.00
2019-04-14T08:01:25.953Z,22.00
2019-04-14T08:04:17.170Z,24.20
2019-04-14T08:06:55.342Z,23.40
2019-04-14T08:09:26.866Z,29.00
2019-04-14T08:11:58.864Z,31.00
2019-04-14T08:14:30.683Z,25.00
2019-04-14T08:17:02.298Z,26.00
2019-04-14T08:19:34.347Z,26.60
2019-04-14T08:24:37.706Z,28.40
2019-04-14T08:27:09.827Z,28.20
2019-04-14T08:29:42.776Z,32.80
2019-04-14T08:32:14.689Z,31.20
2019-04-14T08:34:46.384Z,30.60
2019-04-14T08:37:17.872Z,31.40
2019-04-14T08:39:49.733Z,30.60
2019-04-14T08:42:32.434Z,27.60
2019-04-14T08:45:12.087Z,31.60
2019-04-14T08:47:59.665Z,28.60
2019-04-14T08:50:53.077Z,27.20
2019-04-14T08:53:33.380Z,28.40
2019-04-14T08:56:32.386Z,32.80
2019-04-14T08:59:21.101Z,28.20
2019-04-14T09:02:24.313Z,27.80
2019-04-14T09:05:04.997Z,31.20
2019-04-14T09:07:45.452Z,24.00
2019-04-14T09:10:24.078Z,24.80
2019-04-14T09:12:57.374Z,23.40
2019-04-14T09:15:29.003Z,23.20
2019-04-14T09:18:00.757Z,27.40
2019-04-14T09:20:32.789Z,24.60
2019-04-14T09:23:04.773Z,27.20
2019-04-14T09:25:36.472Z,29.60
2019-04-14T09:28:08.785Z,28.80
2019-04-14T09:30:40.723Z,23.80
2019-04-14T09:33:12.395Z,28.00
2019-04-14T09:35:44.112Z,23.40
2019-04-14T09:38:17.074Z,27.60
2019-04-14T09:40:48.851Z,28.60
2019-04-14T09:43:21.611Z,26.60
2019-04-14T09:45:53.185Z,21.80
2019-04-14T09:48:25.163Z,26.60
2019-04-14T09:51:04.710Z,30.20
2019-04-14T09:53:30.253Z,27.80
2019-04-14T09:56:02.453Z,27.00
2019-04-14T09:58:34.784Z,27.60
2019-04-14T10:01:08.984Z,30.20
2019-04-14T10:03:40.278Z,22.80
2019-04-14T10:06:11.729Z,27.80
2019-04-14T10:08:43.487Z,25.40
2019-04-14T10:11:15.287Z,25.60
2019-04-14T10:13:48.259Z,25.40
2019-04-14T10:16:19.931Z,16.00
2019-04-14T10:18:51.565Z,26.80
2019-04-14T10:21:23.251Z,25.20
2019-04-14T10:23:55.922Z,30.20
2019-04-14T10:26:27.452Z,27.00
2019-04-14T10:28:59.573Z,23.60
2019-04-14T10:31:31.500Z,30.20
2019-04-14T10:34:03.089Z,28.80
2019-04-14T10:36:34.831Z,26.60
2019-04-14T10:39:08.325Z,28.00
2019-04-14T10:41:40.261Z,31.60
2019-04-14T10:44:13.146Z,31.40
2019-04-14T10:46:44.801Z,29.80
2019-04-14T10:49:16.413Z,24.80
2019-04-14T10:51:47.877Z,27.00
2019-04-14T10:54:19.422Z,27.00
2019-04-14T10:56:51.429Z,23.60
2019-04-14T10:59:23.029Z,28.40
2019-04-14T11:01:55.136Z,29.40
2019-04-14T11:04:27.969Z,28.00
2019-04-14T11:07:04.219Z,30.60
2019-04-14T11:09:35.885Z,29.60
2019-04-14T11:12:07.822Z,30.40
2019-04-14T11:14:39.488Z,25.60
2019-04-14T11:17:12.302Z,28.40
2019-04-14T11:19:43.894Z,31.20
2019-04-14T11:22:15.578Z,23.20
2019-04-14T11:24:47.162Z,33.60
2019-04-14T11:27:19.012Z,30.20
2019-04-14T11:29:53.912Z,35.20
2019-04-14T11:32:52.212Z,33.40
2019-04-14T11:35:37.590Z,31.20
2019-04-14T11:38:30.765Z,33.60
2019-04-14T11:41:05.000Z,29.20
2019-04-14T11:43:37.141Z,27.60
2019-04-14T11:46:08.686Z,29.40
2019-04-14T11:48:41.304Z,20.60
2019-04-14T11:51:12.899Z,28.20
2019-04-14T11:53:46.753Z,31.80
2019-04-14T11:56:18.850Z,30.80
2019-04-14T11:59:01.659Z,33.20
2019-04-14T12:01:56.606Z,30.40
2019-04-14T12:04:35.160Z,32.20
2019-04-14T12:07:26.635Z,28.60
2019-04-14T12:10:04.842Z,27.00
2019-04-14T12:12:36.387Z,31.40
2019-04-14T12:15:15.962Z,28.00
2019-04-14T12:17:42.654Z,27.60
2019-04-14T12:20:14.732Z,30.80
2019-04-14T12:22:46.269Z,30.00
2019-04-14T12:25:18.545Z,28.40
2019-04-14T12:27:51.193Z,29.80
2019-04-14T12:30:24.386Z,38.20
2019-04-14T12:32:56.337Z,30.40
2019-04-14T12:35:29.206Z,34.60
2019-04-14T12:38:01.754Z,33.60
2019-04-14T12:40:33.399Z,34.00
2019-04-14T12:43:24.961Z,36.80
2019-04-14T12:46:15.008Z,30.00
2019-04-14T12:49:05.369Z,33.80
2019-04-14T12:51:40.830Z,34.40
2019-04-14T12:54:13.991Z,32.00
2019-04-14T12:56:46.117Z,26.60
2019-04-14T12:59:23.125Z,29.40
2019-04-14T13:02:11.256Z,27.20
2019-04-14T13:04:43.115Z,30.60
2019-04-14T13:07:15.015Z,26.80
2019-04-14T13:09:47.785Z,29.20
2019-04-14T13:12:19.737Z,30.60
2019-04-14T13:14:51.253Z,30.80
2019-04-14T13:17:22.957Z,23.60
2019-04-14T13:19:54.415Z,31.40
2019-04-14T13:22:33.715Z,28.60
2019-04-14T13:24:59.643Z,40.20
2019-04-14T13:27:32.258Z,35.60
2019-04-14T13:30:03.974Z,35.60
2019-04-14T13:32:36.991Z,37.20
2019-04-14T13:35:09.066Z,37.60
2019-04-14T13:37:40.760Z,39.00
2019-04-14T13:40:13.079Z,29.40
2019-04-14T13:42:44.762Z,38.60
2019-04-14T13:45:16.337Z,38.60
2019-04-14T13:47:51.168Z,40.00
2019-04-14T13:50:23.227Z,43.40
2019-04-14T13:52:55.019Z,31.40
2019-04-14T13:55:26.859Z,35.40
2019-04-14T13:57:58.485Z,40.40
2019-04-14T14:00:30.107Z,42.20
2019-04-14T14:03:01.976Z,37.60
2019-04-14T14:05:33.530Z,39.60
2019-04-14T14:08:05.506Z,39.80
2019-04-14T14:10:37.318Z,39.20
2019-04-14T14:13:24.145Z,41.60
2019-04-14T14:16:16.153Z,44.00
2019-04-14T14:19:00.577Z,35.00
2019-04-14T14:21:52.269Z,37.00
2019-04-14T14:24:51.524Z,38.00
2019-04-14T14:27:23.474Z,46.00
2019-04-14T14:29:55.019Z,46.80
2019-04-14T14:32:36.143Z,37.20
2019-04-14T14:35:08.904Z,31.40
2019-04-14T14:37:40.858Z,40.60
2019-04-14T14:40:12.811Z,44.40
2019-04-14T14:42:47.996Z,36.80
2019-04-14T14:45:37.578Z,44.80
2019-04-14T14:48:27.110Z,41.00
2019-04-14T14:51:23.948Z,46.60
2019-04-14T14:53:57.037Z,53.40
2019-04-14T14:56:28.972Z,51.40
2019-04-14T14:59:00.843Z,52.20
2019-04-14T15:01:33.285Z,50.60
2019-04-14T15:04:05.833Z,57.00
2019-04-14T15:06:37.971Z,53.20
2019-04-14T15:09:09.956Z,49.20
2019-04-14T15:11:42.250Z,48.00
2019-04-14T15:14:14.063Z,50.60
2019-04-14T15:16:46.635Z,51.60
2019-04-14T15:19:18.541Z,48.20
2019-04-14T15:21:50.188Z,50.40
2019-04-14T15:24:22.169Z,51.60
2019-04-14T15:26:54.039Z,54.80
2019-04-14T15:29:25.653Z,52.80
2019-04-14T15:31:58.223Z,56.40
2019-04-14T15:34:30.164Z,58.00
2019-04-14T15:37:01.961Z,52.60
2019-04-14T15:39:33.956Z,49.60
2019-04-14T15:42:06.130Z,55.20
2019-04-14T15:44:38.133Z,51.60
2019-04-14T15:47:09.864Z,53.80
2019-04-14T15:49:42.945Z,52.00
2019-04-14T15:52:15.438Z,54.20
2019-04-14T15:54:47.733Z,53.60
2019-04-14T15:57:41.502Z,50.40
2019-04-14T16:00:26.475Z,52.20
2019-04-14T16:03:29.657Z,57.80
2019-04-14T16:06:19.030Z,55.80
2019-04-14T16:09:15.457Z,56.60
2019-04-14T16:12:01.699Z,134.80
2019-04-14T16:14:41.832Z,182.20
2019-04-14T16:17:31.553Z,176.00
2019-04-14T16:20:06.115Z,146.00
2019-04-14T16:22:39.104Z,101.60
2019-04-14T16:25:13.828Z,93.40
2019-04-14T16:28:10.382Z,82.00
2019-04-14T16:31:12.798Z,66.20
2019-04-14T16:34:07.020Z,58.40
2019-04-14T16:36:38.886Z,50.20
2019-04-14T16:39:11.740Z,48.00
2019-04-14T16:41:44.520Z,53.60
2019-04-14T16:44:16.680Z,52.00
2019-04-14T16:46:49.013Z,49.40
2019-04-14T16:49:23.328Z,48.40
2019-04-14T16:52:00.264Z,41.40
2019-04-14T16:54:54.335Z,46.60
2019-04-14T16:57:57.861Z,49.00
2019-04-14T17:00:37.256Z,46.20
2019-04-14T17:03:09.651Z,43.20
2019-04-14T17:05:41.911Z,51.80
2019-04-14T17:08:13.631Z,47.80
2019-04-14T17:10:45.322Z,49.00
2019-04-14T17:13:20.023Z,49.80
2019-04-14T17:16:20.236Z,55.20
2019-04-14T17:19:13.700Z,51.60
2019-04-14T17:21:55.856Z,58.00
2019-04-14T17:24:56.080Z,55.40
2019-04-14T17:28:01.552Z,52.60
2019-04-14T17:30:52.549Z,56.20
2019-04-14T17:33:39.076Z,50.20
2019-04-14T17:36:35.386Z,50.80
2019-04-14T17:39:31.937Z,51.60
2019-04-14T17:42:18.292Z,50.20
2019-04-14T17:45:11.897Z,50.80
2019-04-14T17:48:05.931Z,49.00
2019-04-14T17:50:53.317Z,53.80
2019-04-14T17:53:43.865Z,52.60
2019-04-14T17:56:27.290Z,52.20
2019-04-14T17:59:21.600Z,51.00
2019-04-14T18:02:10.692Z,60.00
2019-04-14T18:04:50.704Z,56.20
2019-04-14T18:07:36.676Z,58.40
2019-04-14T18:10:37.214Z,57.00
2019-04-14T18:13:27.648Z,57.20
2019-04-14T18:16:21.225Z,60.40
2019-04-14T18:19:19.005Z,56.20
2019-04-14T18:21:51.278Z,59.80
2019-04-14T18:24:22.849Z,57.00
2019-04-14T18:26:54.710Z,55.60
2019-04-14T18:29:38.568Z,46.80
2019-04-14T18:32:15.671Z,51.80
2019-04-14T18:34:54.745Z,57.00
2019-04-14T18:37:44.337Z,50.20
2019-04-14T18:40:40.713Z,59.80
2019-04-14T18:43:18.666Z,58.00
2019-04-14T18:46:08.144Z,56.60
2019-04-14T18:48:47.519Z,47.20
2019-04-14T18:51:43.788Z,49.80
2019-04-14T18:54:35.733Z,52.20
2019-04-14T18:57:42.976Z,54.80
2019-04-14T19:00:32.960Z,52.40
2019-04-14T19:03:03.251Z,52.20
2019-04-14T19:05:33.480Z,46.40
2019-04-14T19:08:04.037Z,53.00
2019-04-14T19:10:34.261Z,52.80
2019-04-14T19:13:22.843Z,53.40
2019-04-14T19:15:58.989Z,53.80
2019-04-14T19:18:32.794Z,51.80
2019-04-14T19:21:17.178Z,52.20
2019-04-14T19:23:47.602Z,49.80
2019-04-14T19:26:17.893Z,49.40
2019-04-14T19:28:48.169Z,53.40
2019-04-14T19:31:19.071Z,53.00
2019-04-14T19:33:49.280Z,52.80
2019-04-14T19:36:19.435Z,53.20
2019-04-14T19:38:49.573Z,52.20
2019-04-14T19:41:19.640Z,50.00
2019-04-14T19:43:49.651Z,53.40
2019-04-14T19:46:20.405Z,52.40
2019-04-14T19:48:50.465Z,52.00
2019-04-14T19:51:20.820Z,53.40
2019-04-14T19:53:51.092Z,46.40
2019-04-14T19:56:21.512Z,47.80
2019-04-14T19:58:51.551Z,52.80
2019-04-14T20:01:21.781Z,55.00
2019-04-14T20:03:51.960Z,54.60
2019-04-14T20:06:22.007Z,48.20
2019-04-14T20:08:52.448Z,51.00
2019-04-14T20:11:22.443Z,50.20
2019-04-14T20:13:53.133Z,48.60
2019-04-14T20:16:40.284Z,50.00
2019-04-14T20:19:28.163Z,52.20
2019-04-14T20:22:26.543Z,51.20
2019-04-14T20:25:07.146Z,48.20
2019-04-14T20:27:56.432Z,57.20
2019-04-14T20:30:48.290Z,50.60
2019-04-14T20:33:18.663Z,46.40
2019-04-14T20:35:48.761Z,51.80
2019-04-14T20:38:19.176Z,55.60
2019-04-14T20:40:49.318Z,49.20
2019-04-14T20:43:19.445Z,45.80
2019-04-14T20:45:49.715Z,50.20
2019-04-14T20:48:19.980Z,53.40
2019-04-14T20:50:50.138Z,49.80
2019-04-14T20:53:20.754Z,50.60
2019-04-14T20:55:50.685Z,56.80
2019-04-14T20:58:20.916Z,56.80
2019-04-14T21:00:51.374Z,57.00
2019-04-14T21:03:42.750Z,56.00
2019-04-14T21:06:43.628Z,59.60
2019-04-14T21:09:30.118Z,49.20
2019-04-14T21:12:04.458Z,53.80
2019-04-14T21:14:59.447Z,53.60
2019-04-14T21:17:43.247Z,43.40
2019-04-14T21:20:33.072Z,50.40
2019-04-14T21:23:17.298Z,48.80
2019-04-14T21:26:04.892Z,47.20
2019-04-14T21:28:47.877Z,54.00
2019-04-14T21:31:31.435Z,51.80
2019-04-14T21:34:18.112Z,53.20
2019-04-14T21:37:08.758Z,51.60
2019-04-14T21:40:18.458Z,53.20
2019-04-14T21:42:49.010Z,61.40
2019-04-14T21:45:19.210Z,70.20
2019-04-14T21:47:49.332Z,65.00
2019-04-14T21:50:19.757Z,61.40
2019-04-14T21:52:50.207Z,57.80
2019-04-14T21:55:20.426Z,50.80
2019-04-14T21:58:18.574Z,49.40
2019-04-14T22:01:30.474Z,50.20
2019-04-14T22:04:23.333Z,48.60
2019-04-14T22:06:55.260Z,50.40
2019-04-14T22:09:33.269Z,47.20
2019-04-14T22:12:05.177Z,40.20
2019-04-14T22:14:35.921Z,43.00
2019-04-14T22:17:06.547Z,39.60
2019-04-14T22:19:37.002Z,47.20
2019-04-14T22:22:07.400Z,43.60
2019-04-14T22:24:37.909Z,45.60
2019-04-14T22:27:08.426Z,40.40
2019-04-14T22:29:38.960Z,36.00
2019-04-14T22:32:09.711Z,36.00
2019-04-14T22:34:40.993Z,42.20
2019-04-14T22:37:11.899Z,33.00
2019-04-14T22:39:42.226Z,32.20
2019-04-14T22:42:12.959Z,37.60
2019-04-14T22:44:43.298Z,39.40
2019-04-14T22:47:13.895Z,29.40
2019-04-14T22:49:44.362Z,51.60
2019-04-14T22:52:14.587Z,44.20
2019-04-14T22:54:45.122Z,45.40
2019-04-14T22:57:15.334Z,46.80
2019-04-14T22:59:46.031Z,38.00
2019-04-14T23:02:41.740Z,43.60
2019-04-14T23:05:43.398Z,40.40
2019-04-14T23:08:22.750Z,34.80
2019-04-14T23:11:00.929Z,43.80
2019-04-14T23:13:43.965Z,33.80
2019-04-14T23:16:37.692Z,32.60
2019-04-14T23:19:12.703Z,44.00
2019-04-14T23:21:55.270Z,43.40
2019-04-14T23:24:29.469Z,38.60
2019-04-14T23:27:00.288Z,35.00
2019-04-14T23:29:30.858Z,47.60
2019-04-14T23:32:01.353Z,37.80
2019-04-14T23:34:32.004Z,42.00
2019-04-14T23:37:02.375Z,37.00
2019-04-14T23:39:32.960Z,37.80
2019-04-14T23:42:03.239Z,36.60
2019-04-14T23:44:33.790Z,41.60
2019-04-14T23:47:05.398Z,40.60
2019-04-14T23:49:36.210Z,44.60
2019-04-14T23:52:06.540Z,39.60
2019-04-14T23:54:36.942Z,38.00
2019-04-14T23:57:07.360Z,39.40
2019-04-14T23:59:37.980Z,45.20
